Time;durP1;ratioP1;P1;durP2;ratioP2;P2;SDS_P1;SDS_P2;PMS_P1;PMS_P2;Temp;Humidity;BMP_temperature;BMP_pressure;BME280_temperature;BME280_humidity;BME280_pressure;Samples;Min_cycle;Max_cycle;Signal;HPM_P1;HPM_P2
2022/08/26 00:01:13;;;;;;;19.00;11.38;;;21.20;99.90;;;;;;6227474;22;20019;-90
2022/08/26 00:03:39;;;;;;;17.67;11.93;;;21.20;99.90;;;;;;6230087;23;20023;-90
2022/08/26 00:06:06;;;;;;;20.08;11.45;;;21.20;99.90;;;;;;6231145;23;20016;-91
2022/08/26 00:08:32;;;;;;;18.25;11.23;;;21.20;99.90;;;;;;6206980;23;20082;-90
2022/08/26 00:10:58;;;;;;;22.08;11.52;;;21.20;99.90;;;;;;6231040;23;20042;-90
2022/08/26 00:13:24;;;;;;;21.52;10.73;;;21.20;99.90;;;;;;6205920;23;20016;-90
2022/08/26 00:15:51;;;;;;;22.80;10.85;;;21.20;99.90;;;;;;6223777;22;20016;-86
2022/08/26 00:18:17;;;;;;;18.77;9.32;;;21.20;99.90;;;;;;6220324;23;20020;-86
2022/08/26 00:20:43;;;;;;;19.23;10.02;;;21.20;99.90;;;;;;6221816;23;20031;-86
2022/08/26 00:23:08;;;;;;;15.85;8.23;;;21.20;99.90;;;;;;6221121;22;20012;-86
2022/08/26 00:25:35;;;;;;;15.77;8.55;;;21.10;99.90;;;;;;6222103;23;20012;-85
2022/08/26 00:28:01;;;;;;;21.27;8.25;;;21.10;99.90;;;;;;6221833;22;20038;-87
2022/08/26 00:30:28;;;;;;;17.95;7.70;;;21.10;99.90;;;;;;6252735;22;20012;-93
2022/08/26 00:32:55;;;;;;;15.75;7.68;;;21.10;99.90;;;;;;6227910;23;20030;-92
2022/08/26 00:35:22;;;;;;;17.17;7.43;;;21.10;99.90;;;;;;6202979;23;20031;-92
2022/08/26 00:37:50;;;;;;;20.15;7.63;;;21.10;99.90;;;;;;6204950;23;20042;-92
2022/08/26 00:40:21;;;;;;;16.15;7.13;;;21.00;99.90;;;;;;6231839;23;20046;-93
2022/08/26 00:42:47;;;;;;;16.58;6.68;;;21.00;99.90;;;;;;6207814;23;20028;-92
2022/08/26 02:41:21;;;;;;;11.73;2.28;;;20.10;99.90;;;;;;6234543;22;20028;-89
2022/08/26 02:43:46;;;;;;;10.52;2.42;;;20.10;99.90;;;;;;6193072;22;20050;-87
2022/08/26 03:01:40;;;;;;;10.75;1.98;;;20.10;99.90;;;;;;6299689;22;20510;-90
2022/08/26 03:04:09;;;;;;;13.55;2.97;;;20.00;99.90;;;;;;6301371;22;20023;-88
2022/08/26 03:06:36;;;;;;;10.63;2.20;;;20.00;99.90;;;;;;6275059;22;20011;-89
2022/08/26 03:09:02;;;;;;;10.27;2.30;;;20.00;99.90;;;;;;6300380;22;20345;-88
2022/08/26 03:11:29;;;;;;;12.90;2.30;;;20.00;99.90;;;;;;6298647;22;20053;-89
2022/08/26 03:13:55;;;;;;;11.85;2.28;;;20.00;99.90;;;;;;6301267;22;20026;-89
2022/08/26 04:00:23;;;;;;;12.00;3.03;;;19.90;99.90;;;;;;6243858;22;20062;-91
2022/08/26 04:02:49;;;;;;;16.70;2.85;;;19.90;99.90;;;;;;6223607;22;20011;-91
2022/08/26 04:05:18;;;;;;;8.52;2.20;;;19.90;99.90;;;;;;6250117;22;20016;-91
2022/08/26 04:07:45;;;;;;;10.10;2.35;;;19.90;99.90;;;;;;6249434;22;20454;-91
2022/08/26 04:10:15;;;;;;;9.95;2.35;;;19.90;99.90;;;;;;6247145;22;20339;-92
2022/08/26 04:12:41;;;;;;;13.80;2.60;;;19.90;99.90;;;;;;6247789;22;20476;-92
2022/08/26 06:28:33;;;;;;;12.05;2.05;;;19.90;99.90;;;;;;6249769;22;20201;-86
2022/08/26 06:31:01;;;;;;;11.35;1.70;;;19.90;99.90;;;;;;6231230;22;20016;-87
2022/08/26 06:33:27;;;;;;;11.23;2.22;;;20.00;99.90;;;;;;6250905;22;20016;-88
2022/08/26 06:35:53;;;;;;;10.77;2.00;;;20.00;99.90;;;;;;6228111;22;20022;-87
2022/08/26 06:38:19;;;;;;;15.82;2.28;;;20.10;99.90;;;;;;6251991;22;20016;-88
2022/08/26 06:40:51;;;;;;;12.18;2.35;;;20.10;99.90;;;;;;6227582;22;20011;-87
2022/08/26 06:43:19;;;;;;;11.43;2.17;;;20.10;99.90;;;;;;6228476;22;20023;-86
2022/08/26 07:01:20;;;;;;;10.88;1.70;;;20.20;99.90;;;;;;6247311;22;20200;-89
2022/08/26 07:03:48;;;;;;;9.77;2.15;;;20.30;99.90;;;;;;6274968;22;20504;-90
2022/08/26 07:06:13;;;;;;;10.02;2.45;;;20.30;99.90;;;;;;6275338;22;20015;-90
2022/08/26 07:08:39;;;;;;;7.30;2.38;;;20.30;99.90;;;;;;6275442;22;20019;-90
2022/08/26 07:11:06;;;;;;;10.70;1.83;;;20.30;99.90;;;;;;6272659;22;20092;-90
2022/08/26 07:13:35;;;;;;;8.05;1.83;;;20.30;99.90;;;;;;6302997;22;20015;-90
2022/08/26 07:31:35;;;;;;;7.38;1.70;;;20.40;99.90;;;;;;6253089;22;20333;-88
2022/08/26 07:34:01;;;;;;;10.20;1.75;;;20.50;99.90;;;;;;6243551;22;20027;-87
2022/08/26 07:36:27;;;;;;;6.15;1.83;;;20.50;99.90;;;;;;6244919;22;20012;-87
2022/08/26 07:38:54;;;;;;;9.98;2.10;;;20.60;99.90;;;;;;6246836;22;20089;-87
2022/08/26 07:41:22;;;;;;;6.18;1.40;;;20.60;99.90;;;;;;6242891;22;20089;-87
2022/08/26 07:43:49;;;;;;;7.30;1.75;;;20.70;99.90;;;;;;6221549;22;20050;-89
2022/08/26 09:02:37;;;;;;;13.75;1.73;;;20.60;99.90;;;;;;6263898;22;20019;-90
2022/08/26 09:05:27;;;;;;;11.32;1.60;;;20.70;99.90;;;;;;6226794;22;20012;-91
2022/08/26 09:08:27;;;;;;;8.30;1.58;;;20.70;99.90;;;;;;6252371;22;20011;-90
2022/08/26 09:10:59;;;;;;;7.78;1.60;;;20.70;99.90;;;;;;6188242;22;20417;-90
2022/08/26 09:13:25;;;;;;;7.15;1.40;;;20.60;99.90;;;;;;6251403;22;20012;-90
2022/08/26 09:16:12;;;;;;;8.48;1.52;;;20.70;99.90;;;;;;6223227;22;20011;-90
2022/08/26 09:19:13;;;;;;;7.10;1.98;;;20.60;99.90;;;;;;6249491;22;20012;-90
2022/08/26 09:21:39;;;;;;;5.78;1.80;;;20.70;99.90;;;;;;6224955;22;20015;-89
2022/08/26 09:24:05;;;;;;;7.28;1.55;;;20.60;99.90;;;;;;6223009;22;20011;-90
2022/08/26 09:26:37;;;;;;;8.70;1.67;;;20.70;99.90;;;;;;6249609;22;20018;-90
2022/08/26 09:29:28;;;;;;;7.15;1.35;;;20.70;99.90;;;;;;6251752;22;20055;-90
2022/08/26 09:32:19;;;;;;;7.25;1.20;;;20.80;99.90;;;;;;6243996;22;20024;-93
2022/08/26 09:35:04;;;;;;;7.85;1.80;;;20.80;99.90;;;;;;6228960;22;20023;-95
2022/08/26 09:37:39;;;;;;;6.68;1.40;;;20.90;99.90;;;;;;6206083;23;20445;-94
2022/08/26 09:40:15;;;;;;;6.68;1.40;;;20.90;99.90;;;;;;6203352;23;20071;-94
2022/08/26 09:42:44;;;;;;;7.40;1.52;;;20.90;99.90;;;;;;6231618;22;20016;-93
2022/08/26 09:45:11;;;;;;;6.43;1.50;;;20.90;99.90;;;;;;6231516;22;20677;-94
2022/08/26 11:03:51;;;;;;;7.43;1.35;;;21.20;99.90;;;;;;6167104;23;20466;-87
2022/08/26 11:06:17;;;;;;;4.28;1.20;;;21.20;99.90;;;;;;6166996;23;20017;-90
2022/08/26 11:08:52;;;;;;;6.28;1.50;;;21.20;99.90;;;;;;6161834;23;20024;-91
2022/08/26 11:11:45;;;;;;;7.25;1.67;;;21.20;99.90;;;;;;6160096;23;20032;-90
2022/08/26 11:14:20;;;;;;;6.25;1.60;;;21.20;99.90;;;;;;6171784;23;20024;-91
2022/08/26 11:42:43;;;;;;;7.65;1.60;;;21.00;99.90;;;;;;6257080;22;20020;-92
2022/08/26 11:45:42;;;;;;;4.70;1.20;;;21.10;99.90;;;;;;6258533;22;20032;-91
2022/08/26 11:48:21;;;;;;;7.05;1.55;;;21.20;99.90;;;;;;6249452;22;20448;-89
2022/08/26 11:51:04;;;;;;;7.38;1.33;;;21.20;99.90;;;;;;6300259;22;20065;-89
2022/08/26 11:53:33;;;;;;;7.43;1.30;;;21.30;99.90;;;;;;6301234;22;20095;-89
2022/08/26 11:56:03;;;;;;;5.20;1.35;;;21.30;99.90;;;;;;6276867;22;20025;-90
2022/08/26 11:58:29;;;;;;;7.50;1.50;;;21.30;99.90;;;;;;6300163;22;20344;-89
2022/08/26 12:01:05;;;;;;;7.50;1.58;;;21.40;99.90;;;;;;6301488;22;20016;-89
2022/08/26 12:03:34;;;;;;;5.35;1.13;;;21.50;99.90;;;;;;6301667;22;20018;-89
2022/08/26 12:06:01;;;;;;;5.88;1.40;;;21.50;99.90;;;;;;6280093;22;20046;-87
2022/08/26 12:08:31;;;;;;;7.97;1.60;;;21.50;99.90;;;;;;6280701;22;20486;-88
2022/08/26 12:11:07;;;;;;;6.93;1.45;;;21.40;99.90;;;;;;6282577;22;20091;-88
2022/08/26 12:13:34;;;;;;;4.70;1.00;;;21.30;99.90;;;;;;6283412;22;20086;-89
2022/08/26 12:16:00;;;;;;;2.92;0.90;;;21.30;99.90;;;;;;6278644;22;20406;-92
2022/08/26 12:18:31;;;;;;;4.07;1.00;;;21.30;99.90;;;;;;6286547;22;20011;-93
2022/08/26 12:21:11;;;;;;;6.05;1.45;;;21.30;99.90;;;;;;6258732;22;20389;-92
2022/08/26 12:23:44;;;;;;;4.68;1.17;;;21.30;99.90;;;;;;6233420;22;20015;-93
2022/08/26 12:26:36;;;;;;;6.13;1.55;;;21.30;99.90;;;;;;6233485;22;20024;-93
2022/08/26 12:29:06;;;;;;;8.90;1.60;;;21.40;99.90;;;;;;6291514;22;20039;-92
2022/08/26 13:32:46;;;;;;;6.57;1.70;;;21.10;99.90;;;;;;6263302;21;1266649;-95
2022/08/26 13:35:12;;;;;;;6.93;1.40;;;21.40;99.90;;;;;;6225155;23;20020;-95
2022/08/26 13:37:38;;;;;;;6.45;1.42;;;21.40;99.90;;;;;;6226098;23;20013;-95
2022/08/26 13:40:05;;;;;;;9.90;2.22;;;21.40;99.90;;;;;;6203619;23;20012;-93
2022/08/26 13:42:31;;;;;;;6.43;1.70;;;21.40;99.90;;;;;;6201764;23;20445;-95
2022/08/26 13:44:57;;;;;;;6.25;1.50;;;21.40;99.90;;;;;;6203726;23;20020;-95
2022/08/26 13:47:24;;;;;;;9.18;1.85;;;21.40;99.90;;;;;;6178728;23;20445;-95
2022/08/26 13:49:50;;;;;;;4.22;1.30;;;21.30;99.90;;;;;;6194428;23;20016;-94
2022/08/26 13:52:16;;;;;;;6.03;1.48;;;21.30;99.90;;;;;;6224205;23;20312;-95
2022/08/26 13:54:42;;;;;;;9.43;1.98;;;21.20;99.90;;;;;;6198715;23;20012;-96
2022/08/26 13:57:08;;;;;;;7.10;1.92;;;21.10;99.90;;;;;;6224921;23;20035;-95
2022/08/26 13:59:34;;;;;;;8.05;1.73;;;21.10;99.90;;;;;;6200455;23;20008;-95
2022/08/26 14:17:32;;;;;;;8.48;1.98;;;21.50;99.90;;;;;;6240751;22;20064;-88
2022/08/26 14:19:57;;;;;;;6.75;1.52;;;21.40;99.90;;;;;;6224227;23;20031;-89
2022/08/26 14:22:23;;;;;;;7.50;1.33;;;21.40;99.90;;;;;;6199303;22;20089;-89
2022/08/26 14:24:49;;;;;;;3.92;1.10;;;21.30;99.90;;;;;;6225851;23;20098;-89
2022/08/26 14:27:15;;;;;;;4.28;1.27;;;21.20;99.90;;;;;;6222091;22;20515;-89
2022/08/26 14:29:41;;;;;;;5.15;1.55;;;21.10;99.90;;;;;;6223174;22;20019;-88
2022/08/26 14:47:39;;;;;;;5.15;1.55;;;21.00;99.90;;;;;;6254432;22;20019;-91
2022/08/26 14:50:05;;;;;;;3.33;1.10;;;20.90;99.90;;;;;;6235894;22;20018;-90
2022/08/26 14:54:10;;;;;;;10.23;1.48;;;20.80;99.90;;;;;;6268681;22;20016;-91
2022/08/26 14:55:16;;;;;;;6.13;1.60;;;20.80;99.90;;;;;;6268437;22;20007;-91
2022/08/26 14:57:42;;;;;;;7.45;1.58;;;20.80;99.90;;;;;;6268459;22;20452;-92
2022/08/26 15:00:08;;;;;;;8.80;1.52;;;20.80;99.90;;;;;;6243642;22;20265;-89
2022/08/26 15:49:50;;;;;;;4.22;2.03;;;20.60;99.90;;;;;;6194370;23;20045;-94
2022/08/26 15:52:17;;;;;;;8.32;1.60;;;20.60;99.90;;;;;;6168305;23;20021;-94
2022/08/26 15:54:43;;;;;;;7.32;2.25;;;20.50;99.90;;;;;;6195058;23;20334;-93
2022/08/26 15:57:09;;;;;;;6.15;1.77;;;20.50;99.90;;;;;;6159779;23;20025;-93
2022/08/26 15:59:36;;;;;;;6.22;1.98;;;20.50;99.90;;;;;;6165593;23;20014;-92
2022/08/26 16:02:02;;;;;;;9.23;2.08;;;20.40;99.90;;;;;;6161532;22;20015;-87
2022/08/26 16:04:28;;;;;;;9.38;2.25;;;20.40;99.90;;;;;;6220655;22;20007;-87
2022/08/26 16:06:54;;;;;;;5.00;1.60;;;20.30;99.90;;;;;;6245996;22;20011;-87
2022/08/26 16:09:22;;;;;;;5.88;1.50;;;20.30;99.90;;;;;;6221880;22;20015;-87
2022/08/26 16:11:47;;;;;;;8.95;2.47;;;20.30;99.90;;;;;;6247124;22;20460;-86
2022/08/26 16:14:15;;;;;;;7.93;1.63;;;20.20;99.90;;;;;;6247999;22;20020;-87
2022/08/26 16:16:41;;;;;;;4.70;1.55;;;20.20;99.90;;;;;;6223788;22;20014;-87
2022/08/26 16:19:07;;;;;;;6.57;2.00;;;20.30;99.90;;;;;;6222328;22;20043;-87
2022/08/26 16:21:33;;;;;;;6.55;1.83;;;20.20;99.90;;;;;;6275236;22;20018;-87
2022/08/26 16:23:59;;;;;;;7.38;2.25;;;20.30;99.90;;;;;;6219960;22;20277;-87
2022/08/26 16:26:28;;;;;;;6.82;1.80;;;20.20;99.90;;;;;;6270703;22;20011;-86
2022/08/26 16:28:54;;;;;;;7.78;1.70;;;20.20;99.90;;;;;;6246321;22;20366;-87
2022/08/26 16:31:20;;;;;;;8.10;2.28;;;20.20;99.90;;;;;;6220856;22;20050;-87
2022/08/26 17:02:15;;;;;;;6.72;2.40;;;20.20;99.90;;;;;;6240785;22;20054;-88
2022/08/26 17:04:41;;;;;;;5.70;1.83;;;20.10;99.90;;;;;;6272366;22;20479;-88
2022/08/26 17:07:07;;;;;;;6.70;1.85;;;20.00;99.90;;;;;;6220258;22;20019;-88
2022/08/26 17:09:32;;;;;;;5.38;1.98;;;19.90;99.90;;;;;;6220762;22;20341;-89
2022/08/26 17:11:58;;;;;;;9.52;2.10;;;19.90;99.90;;;;;;6246594;22;20338;-89
2022/08/26 17:14:24;;;;;;;7.70;1.90;;;19.80;99.90;;;;;;6246110;22;20171;-87
2022/08/26 18:18:27;;;;;;;5.00;1.70;;;18.90;99.90;;;;;;6252324;22;20015;-89
2022/08/26 18:20:53;;;;;;;6.28;1.60;;;18.90;99.90;;;;;;6254759;22;20333;-88
2022/08/26 18:23:19;;;;;;;6.82;2.10;;;18.80;99.90;;;;;;6253083;22;20026;-88
2022/08/26 18:25:44;;;;;;;8.10;1.70;;;18.80;99.90;;;;;;6217178;22;20004;-88
2022/08/26 18:28:10;;;;;;;5.28;1.77;;;18.80;99.90;;;;;;6225027;22;20016;-89
2022/08/26 18:30:36;;;;;;;4.68;1.58;;;18.70;99.90;;;;;;6229699;22;20022;-89
2022/08/26 20:34:34;;;;;;;6.53;2.70;;;17.00;99.90;;;;;;6285161;22;20094;-86
2022/08/26 20:37:01;;;;;;;5.57;2.67;;;17.00;99.90;;;;;;6305399;22;20014;-86
2022/08/26 20:39:29;;;;;;;9.45;2.08;;;17.00;99.90;;;;;;6292616;22;20022;-85
2022/08/26 20:41:56;;;;;;;8.48;2.33;;;16.90;99.90;;;;;;6305594;22;20015;-85
2022/08/26 20:44:22;;;;;;;8.95;2.20;;;16.90;99.90;;;;;;6305147;22;20011;-88
2022/08/26 20:46:49;;;;;;;7.13;2.20;;;16.90;99.90;;;;;;6279398;22;20011;-88
2022/08/26 21:04:39;;;;;;;6.57;2.60;;;16.70;99.90;;;;;;6253499;22;20524;-88
2022/08/26 21:07:05;;;;;;;7.50;2.70;;;16.70;99.90;;;;;;6192725;23;20020;-88
2022/08/26 21:09:30;;;;;;;5.45;2.70;;;16.60;99.90;;;;;;6190423;23;20094;-87
2022/08/26 21:11:56;;;;;;;9.10;3.55;;;16.50;99.90;;;;;;6217359;23;20016;-87
2022/08/26 21:14:22;;;;;;;7.95;2.60;;;16.50;99.90;;;;;;6217414;23;20012;-87
2022/08/26 21:16:48;;;;;;;7.05;2.83;;;16.50;99.90;;;;;;6218496;23;20008;-87
2022/08/26 22:03:16;;;;;;;5.93;2.80;;;16.10;99.90;;;;;;6235817;22;20233;-88
2022/08/26 22:05:50;;;;;;;4.97;2.70;;;16.00;99.90;;;;;;6193129;23;20017;-87
2022/08/26 22:08:18;;;;;;;10.55;3.10;;;15.90;99.90;;;;;;6164880;23;20378;-89
2022/08/26 22:10:50;;;;;;;10.52;2.65;;;15.90;99.90;;;;;;6165060;23;20052;-87
2022/08/26 22:13:28;;;;;;;6.60;2.70;;;15.90;99.90;;;;;;6190716;23;20016;-88
2022/08/26 22:15:56;;;;;;;6.53;2.67;;;15.90;99.90;;;;;;6166471;23;20346;-87
2022/08/26 22:18:24;;;;;;;9.63;2.88;;;15.90;99.90;;;;;;6194265;22;20501;-89
2022/08/26 22:20:51;;;;;;;8.90;2.88;;;15.80;99.90;;;;;;6215472;23;20008;-89
2022/08/26 22:23:17;;;;;;;7.47;3.00;;;15.80;99.90;;;;;;6219577;23;20024;-91
2022/08/26 22:25:43;;;;;;;9.20;3.35;;;15.80;99.90;;;;;;6192842;23;20008;-91
2022/08/26 22:28:10;;;;;;;9.82;3.50;;;15.80;99.90;;;;;;6191369;23;20031;-90
2022/08/26 22:30:36;;;;;;;5.80;2.83;;;15.70;99.90;;;;;;6218053;23;20042;-90
2022/08/26 22:33:02;;;;;;;11.07;3.58;;;15.70;99.90;;;;;;6193479;22;19992;-83
2022/08/26 22:35:29;;;;;;;8.88;2.95;;;15.70;99.90;;;;;;6275721;22;20011;-86
2022/08/26 22:37:55;;;;;;;8.32;2.72;;;15.70;99.90;;;;;;6300920;22;20026;-85
2022/08/26 22:40:22;;;;;;;8.40;3.10;;;15.60;99.90;;;;;;6300638;22;20019;-85
2022/08/26 22:42:48;;;;;;;7.65;3.22;;;15.60;99.90;;;;;;6275084;22;20576;-84
2022/08/26 22:45:13;;;;;;;11.18;3.30;;;15.60;99.90;;;;;;6303454;22;20085;-84
2022/08/26 22:47:40;;;;;;;6.43;3.15;;;15.60;99.90;;;;;;6275952;22;20317;-83
2022/08/26 23:03:28;;;;;;;11.23;3.88;;;15.40;99.90;;;;;;6239884;22;20077;-93
2022/08/26 23:05:54;;;;;;;15.63;3.90;;;15.40;99.90;;;;;;6189820;23;20025;-89
2022/08/26 23:08:21;;;;;;;5.13;3.58;;;15.40;99.90;;;;;;6154121;23;20017;-89
2022/08/26 23:10:47;;;;;;;8.88;3.70;;;15.40;99.90;;;;;;6177285;23;20406;-89
2022/08/26 23:13:14;;;;;;;8.32;3.72;;;15.40;99.90;;;;;;6178334;23;20374;-89
2022/08/26 23:15:41;;;;;;;10.38;4.03;;;15.40;99.90;;;;;;6154396;23;20020;-89
2022/08/26 23:47:46;;;;;;;8.77;4.03;;;15.30;99.90;;;;;;6220317;22;20027;-83
